sensor_id;sensor_type;location;lat;lon;timestamp;P1;durP1;ratioP1;P2;durP2;ratioP2
10299;SDS011;5195;48.562;9.192;2024-01-06T00:01:18;8.43;;;7.00;;
10299;SDS011;5195;48.562;9.192;2024-01-06T00:03:54;8.77;;;7.78;;
10299;SDS011;5195;48.562;9.192;2024-01-06T00:06:29;8.63;;;7.93;;
10299;SDS011;5195;48.562;9.192;2024-01-06T00:09:05;29.70;;;22.67;;
10299;SDS011;5195;48.562;9.192;2024-01-06T00:11:41;16.53;;;12.83;;
10299;SDS011;5195;48.562;9.192;2024-01-06T00:14:16;9.00;;;8.10;;
10299;SDS011;5195;48.562;9.192;2024-01-06T00:16:52;9.38;;;8.57;;
10299;SDS011;5195;48.562;9.192;2024-01-06T00:19:28;8.40;;;6.63;;
10299;SDS011;5195;48.562;9.192;2024-01-06T00:22:03;7.32;;;6.62;;
10299;SDS011;5195;48.562;9.192;2024-01-06T00:24:39;6.77;;;6.27;;
10299;SDS011;5195;48.562;9.192;2024-01-06T00:27:14;6.37;;;5.80;;
10299;SDS011;5195;48.562;9.192;2024-01-06T00:29:50;7.97;;;7.17;;
10299;SDS011;5195;48.562;9.192;2024-01-06T00:32:26;6.63;;;5.87;;
10299;SDS011;5195;48.562;9.192;2024-01-06T00:35:01;6.50;;;5.73;;
10299;SDS011;5195;48.562;9.192;2024-01-06T00:37:37;7.20;;;6.60;;
10299;SDS011;5195;48.562;9.192;2024-01-06T00:40:13;7.30;;;6.60;;
10299;SDS011;5195;48.562;9.192;2024-01-06T00:42:50;6.90;;;6.40;;
10299;SDS011;5195;48.562;9.192;2024-01-06T00:45:26;7.37;;;6.68;;
10299;SDS011;5195;48.562;9.192;2024-01-06T00:48:02;6.83;;;6.23;;
10299;SDS011;5195;48.562;9.192;2024-01-06T00:50:37;5.57;;;5.07;;
10299;SDS011;5195;48.562;9.192;2024-01-06T00:53:13;7.00;;;5.43;;
10299;SDS011;5195;48.562;9.192;2024-01-06T00:55:48;5.77;;;5.07;;
10299;SDS011;5195;48.562;9.192;2024-01-06T00:58:25;5.57;;;5.17;;
10299;SDS011;5195;48.562;9.192;2024-01-06T01:01:01;6.53;;;5.78;;
10299;SDS011;5195;48.562;9.192;2024-01-06T01:03:38;6.17;;;5.60;;
10299;SDS011;5195;48.562;9.192;2024-01-06T01:06:14;6.17;;;4.60;;
10299;SDS011;5195;48.562;9.192;2024-01-06T01:08:49;5.93;;;5.43;;
10299;SDS011;5195;48.562;9.192;2024-01-06T01:11:25;4.80;;;4.23;;
10299;SDS011;5195;48.562;9.192;2024-01-06T01:14:00;5.05;;;4.62;;
10299;SDS011;5195;48.562;9.192;2024-01-06T01:16:37;4.70;;;4.30;;
10299;SDS011;5195;48.562;9.192;2024-01-06T01:19:13;4.13;;;3.83;;
10299;SDS011;5195;48.562;9.192;2024-01-06T01:21:49;4.70;;;4.40;;
10299;SDS011;5195;48.562;9.192;2024-01-06T01:24:24;4.10;;;3.80;;
10299;SDS011;5195;48.562;9.192;2024-01-06T01:27:00;4.27;;;3.97;;
10299;SDS011;5195;48.562;9.192;2024-01-06T01:29:36;4.82;;;4.43;;
10299;SDS011;5195;48.562;9.192;2024-01-06T01:32:12;4.33;;;4.03;;
10299;SDS011;5195;48.562;9.192;2024-01-06T01:34:48;5.22;;;4.70;;
10299;SDS011;5195;48.562;9.192;2024-01-06T01:37:25;4.07;;;3.77;;
10299;SDS011;5195;48.562;9.192;2024-01-06T01:40:01;4.80;;;4.37;;
10299;SDS011;5195;48.562;9.192;2024-01-06T01:42:38;6.63;;;3.93;;
10299;SDS011;5195;48.562;9.192;2024-01-06T01:45:14;5.80;;;5.07;;
10299;SDS011;5195;48.562;9.192;2024-01-06T01:47:51;6.70;;;4.90;;
10299;SDS011;5195;48.562;9.192;2024-01-06T01:50:26;5.03;;;4.62;;
10299;SDS011;5195;48.562;9.192;2024-01-06T01:53:03;4.87;;;4.43;;
10299;SDS011;5195;48.562;9.192;2024-01-06T01:55:38;7.93;;;4.03;;
10299;SDS011;5195;48.562;9.192;2024-01-06T01:58:14;4.17;;;3.87;;
10299;SDS011;5195;48.562;9.192;2024-01-06T02:00:50;5.62;;;5.10;;
10299;SDS011;5195;48.562;9.192;2024-01-06T02:03:27;4.70;;;4.30;;
10299;SDS011;5195;48.562;9.192;2024-01-06T02:06:04;4.73;;;4.10;;
10299;SDS011;5195;48.562;9.192;2024-01-06T02:08:41;4.37;;;3.97;;
10299;SDS011;5195;48.562;9.192;2024-01-06T02:11:17;3.17;;;2.97;;
10299;SDS011;5195;48.562;9.192;2024-01-06T02:13:53;3.47;;;2.93;;
10299;SDS011;5195;48.562;9.192;2024-01-06T02:16:29;4.13;;;3.33;;
10299;SDS011;5195;48.562;9.192;2024-01-06T02:19:05;4.87;;;3.33;;
10299;SDS011;5195;48.562;9.192;2024-01-06T02:21:42;3.47;;;3.27;;
10299;SDS011;5195;48.562;9.192;2024-01-06T02:24:17;4.32;;;3.10;;
10299;SDS011;5195;48.562;9.192;2024-01-06T02:26:53;4.40;;;3.70;;
10299;SDS011;5195;48.562;9.192;2024-01-06T02:29:30;4.17;;;3.77;;
10299;SDS011;5195;48.562;9.192;2024-01-06T02:32:05;5.70;;;3.50;;
10299;SDS011;5195;48.562;9.192;2024-01-06T02:34:41;4.40;;;3.47;;
10299;SDS011;5195;48.562;9.192;2024-01-06T02:37:19;3.50;;;3.20;;
10299;SDS011;5195;48.562;9.192;2024-01-06T02:39:55;3.70;;;3.40;;
10299;SDS011;5195;48.562;9.192;2024-01-06T02:42:31;4.33;;;3.93;;
10299;SDS011;5195;48.562;9.192;2024-01-06T02:45:07;4.10;;;3.70;;
10299;SDS011;5195;48.562;9.192;2024-01-06T02:47:42;5.67;;;3.70;;
10299;SDS011;5195;48.562;9.192;2024-01-06T02:50:18;4.13;;;3.73;;
10299;SDS011;5195;48.562;9.192;2024-01-06T02:52:54;3.47;;;3.17;;
10299;SDS011;5195;48.562;9.192;2024-01-06T02:55:30;5.32;;;4.00;;
10299;SDS011;5195;48.562;9.192;2024-01-06T02:58:05;4.43;;;4.03;;
10299;SDS011;5195;48.562;9.192;2024-01-06T03:00:43;3.80;;;3.37;;
10299;SDS011;5195;48.562;9.192;2024-01-06T03:03:18;4.40;;;4.00;;
10299;SDS011;5195;48.562;9.192;2024-01-06T03:05:55;5.12;;;4.00;;
10299;SDS011;5195;48.562;9.192;2024-01-06T03:08:32;4.27;;;3.60;;
10299;SDS011;5195;48.562;9.192;2024-01-06T03:11:07;5.57;;;4.37;;
10299;SDS011;5195;48.562;9.192;2024-01-06T03:13:43;6.23;;;5.53;;
10299;SDS011;5195;48.562;9.192;2024-01-06T03:16:18;5.00;;;4.60;;
10299;SDS011;5195;48.562;9.192;2024-01-06T03:18:54;4.97;;;4.10;;
10299;SDS011;5195;48.562;9.192;2024-01-06T03:21:32;4.43;;;4.10;;
10299;SDS011;5195;48.562;9.192;2024-01-06T03:24:07;5.30;;;4.72;;
10299;SDS011;5195;48.562;9.192;2024-01-06T03:26:43;4.80;;;4.33;;
10299;SDS011;5195;48.562;9.192;2024-01-06T03:29:20;5.25;;;4.75;;
10299;SDS011;5195;48.562;9.192;2024-01-06T03:31:55;5.07;;;4.27;;
10299;SDS011;5195;48.562;9.192;2024-01-06T03:34:31;4.10;;;3.80;;
10299;SDS011;5195;48.562;9.192;2024-01-06T03:37:07;3.50;;;3.20;;
10299;SDS011;5195;48.562;9.192;2024-01-06T03:39:42;3.92;;;3.50;;
10299;SDS011;5195;48.562;9.192;2024-01-06T03:42:18;5.77;;;2.80;;
10299;SDS011;5195;48.562;9.192;2024-01-06T03:44:53;3.20;;;3.00;;
10299;SDS011;5195;48.562;9.192;2024-01-06T03:47:29;2.93;;;2.63;;
10299;SDS011;5195;48.562;9.192;2024-01-06T03:50:05;3.10;;;2.80;;
10299;SDS011;5195;48.562;9.192;2024-01-06T03:52:41;3.00;;;2.70;;
10299;SDS011;5195;48.562;9.192;2024-01-06T03:55:17;2.53;;;2.30;;
10299;SDS011;5195;48.562;9.192;2024-01-06T03:57:52;2.90;;;2.70;;
10299;SDS011;5195;48.562;9.192;2024-01-06T04:00:28;3.57;;;2.70;;
10299;SDS011;5195;48.562;9.192;2024-01-06T04:03:03;3.78;;;3.10;;
10299;SDS011;5195;48.562;9.192;2024-01-06T04:05:40;3.00;;;2.58;;
10299;SDS011;5195;48.562;9.192;2024-01-06T04:08:16;2.60;;;2.30;;
10299;SDS011;5195;48.562;9.192;2024-01-06T04:10:51;3.20;;;2.87;;
10299;SDS011;5195;48.562;9.192;2024-01-06T04:13:27;4.53;;;2.73;;
10299;SDS011;5195;48.562;9.192;2024-01-06T04:16:03;3.12;;;2.80;;
10299;SDS011;5195;48.562;9.192;2024-01-06T04:18:38;3.33;;;2.63;;
10299;SDS011;5195;48.562;9.192;2024-01-06T04:21:14;3.20;;;2.90;;
10299;SDS011;5195;48.562;9.192;2024-01-06T04:23:50;2.53;;;2.33;;
10299;SDS011;5195;48.562;9.192;2024-01-06T04:26:25;4.05;;;2.90;;
10299;SDS011;5195;48.562;9.192;2024-01-06T04:29:01;4.47;;;2.70;;
10299;SDS011;5195;48.562;9.192;2024-01-06T04:31:37;3.37;;;2.95;;
10299;SDS011;5195;48.562;9.192;2024-01-06T04:34:13;3.67;;;2.70;;
10299;SDS011;5195;48.562;9.192;2024-01-06T04:36:50;3.17;;;2.83;;
10299;SDS011;5195;48.562;9.192;2024-01-06T04:39:25;3.70;;;3.00;;
10299;SDS011;5195;48.562;9.192;2024-01-06T04:42:01;5.60;;;2.60;;
10299;SDS011;5195;48.562;9.192;2024-01-06T04:44:36;3.20;;;2.77;;
10299;SDS011;5195;48.562;9.192;2024-01-06T04:47:12;4.20;;;3.00;;
10299;SDS011;5195;48.562;9.192;2024-01-06T04:49:47;2.97;;;2.33;;
10299;SDS011;5195;48.562;9.192;2024-01-06T04:52:23;2.50;;;2.30;;
10299;SDS011;5195;48.562;9.192;2024-01-06T04:54:59;4.12;;;3.10;;
10299;SDS011;5195;48.562;9.192;2024-01-06T04:57:36;3.23;;;2.90;;
10299;SDS011;5195;48.562;9.192;2024-01-06T05:00:12;3.03;;;2.67;;
10299;SDS011;5195;48.562;9.192;2024-01-06T05:02:48;4.00;;;3.00;;
10299;SDS011;5195;48.562;9.192;2024-01-06T05:05:24;4.18;;;3.83;;
10299;SDS011;5195;48.562;9.192;2024-01-06T05:08:00;3.67;;;3.43;;
10299;SDS011;5195;48.562;9.192;2024-01-06T05:10:36;4.90;;;4.30;;
10299;SDS011;5195;48.562;9.192;2024-01-06T05:13:11;4.90;;;4.35;;
10299;SDS011;5195;48.562;9.192;2024-01-06T05:15:47;4.53;;;4.13;;
10299;SDS011;5195;48.562;9.192;2024-01-06T05:18:22;4.10;;;3.80;;
10299;SDS011;5195;48.562;9.192;2024-01-06T05:20:59;4.23;;;3.93;;
10299;SDS011;5195;48.562;9.192;2024-01-06T05:23:34;4.13;;;3.73;;
10299;SDS011;5195;48.562;9.192;2024-01-06T05:26:11;4.87;;;4.47;;
10299;SDS011;5195;48.562;9.192;2024-01-06T05:28:46;4.00;;;3.70;;
10299;SDS011;5195;48.562;9.192;2024-01-06T05:31:22;5.37;;;4.32;;
10299;SDS011;5195;48.562;9.192;2024-01-06T05:33:57;5.62;;;4.60;;
10299;SDS011;5195;48.562;9.192;2024-01-06T05:36:33;4.80;;;4.40;;
10299;SDS011;5195;48.562;9.192;2024-01-06T05:39:09;4.85;;;4.50;;
10299;SDS011;5195;48.562;9.192;2024-01-06T05:41:45;4.60;;;3.80;;
10299;SDS011;5195;48.562;9.192;2024-01-06T05:44:21;3.87;;;3.43;;
10299;SDS011;5195;48.562;9.192;2024-01-06T05:46:57;3.17;;;2.97;;
10299;SDS011;5195;48.562;9.192;2024-01-06T05:49:33;4.82;;;4.05;;
10299;SDS011;5195;48.562;9.192;2024-01-06T05:52:08;3.80;;;3.40;;
10299;SDS011;5195;48.562;9.192;2024-01-06T05:54:44;4.97;;;3.70;;
10299;SDS011;5195;48.562;9.192;2024-01-06T05:57:20;3.50;;;3.20;;
10299;SDS011;5195;48.562;9.192;2024-01-06T05:59:56;5.00;;;3.50;;
10299;SDS011;5195;48.562;9.192;2024-01-06T06:02:33;5.12;;;3.30;;
10299;SDS011;5195;48.562;9.192;2024-01-06T06:05:10;3.40;;;3.10;;
10299;SDS011;5195;48.562;9.192;2024-01-06T06:07:45;3.47;;;3.17;;
10299;SDS011;5195;48.562;9.192;2024-01-06T06:10:21;3.77;;;3.47;;
10299;SDS011;5195;48.562;9.192;2024-01-06T06:12:57;4.37;;;3.97;;
10299;SDS011;5195;48.562;9.192;2024-01-06T06:15:33;4.90;;;3.63;;
10299;SDS011;5195;48.562;9.192;2024-01-06T06:18:09;3.17;;;2.97;;
10299;SDS011;5195;48.562;9.192;2024-01-06T06:20:45;4.00;;;3.20;;
10299;SDS011;5195;48.562;9.192;2024-01-06T06:23:20;3.67;;;3.37;;
10299;SDS011;5195;48.562;9.192;2024-01-06T06:25:56;3.73;;;3.43;;
10299;SDS011;5195;48.562;9.192;2024-01-06T06:28:32;5.20;;;3.60;;
10299;SDS011;5195;48.562;9.192;2024-01-06T06:31:08;4.13;;;2.73;;
10299;SDS011;5195;48.562;9.192;2024-01-06T06:33:44;2.90;;;2.50;;
10299;SDS011;5195;48.562;9.192;2024-01-06T06:36:19;4.00;;;2.73;;
10299;SDS011;5195;48.562;9.192;2024-01-06T06:38:55;4.82;;;3.40;;
10299;SDS011;5195;48.562;9.192;2024-01-06T06:41:31;3.55;;;3.25;;
10299;SDS011;5195;48.562;9.192;2024-01-06T06:44:08;2.70;;;2.50;;
10299;SDS011;5195;48.562;9.192;2024-01-06T06:46:44;3.95;;;3.20;;
10299;SDS011;5195;48.562;9.192;2024-01-06T06:49:19;3.22;;;3.00;;
10299;SDS011;5195;48.562;9.192;2024-01-06T06:51:55;4.60;;;3.20;;
10299;SDS011;5195;48.562;9.192;2024-01-06T06:54:31;3.37;;;3.07;;
10299;SDS011;5195;48.562;9.192;2024-01-06T06:57:06;3.97;;;3.67;;
10299;SDS011;5195;48.562;9.192;2024-01-06T06:59:43;2.80;;;2.60;;
10299;SDS011;5195;48.562;9.192;2024-01-06T07:02:19;2.63;;;2.43;;
10299;SDS011;5195;48.562;9.192;2024-01-06T07:04:54;3.40;;;2.70;;
10299;SDS011;5195;48.562;9.192;2024-01-06T07:07:31;6.37;;;2.60;;
10299;SDS011;5195;48.562;9.192;2024-01-06T07:10:07;3.65;;;2.97;;
10299;SDS011;5195;48.562;9.192;2024-01-06T07:12:44;4.13;;;3.10;;
10299;SDS011;5195;48.562;9.192;2024-01-06T07:15:19;4.20;;;3.03;;
10299;SDS011;5195;48.562;9.192;2024-01-06T07:17:55;3.28;;;2.97;;
10299;SDS011;5195;48.562;9.192;2024-01-06T07:20:31;3.45;;;3.05;;
10299;SDS011;5195;48.562;9.192;2024-01-06T07:23:06;3.92;;;3.10;;
10299;SDS011;5195;48.562;9.192;2024-01-06T07:25:42;4.13;;;3.03;;
10299;SDS011;5195;48.562;9.192;2024-01-06T07:28:17;2.53;;;2.40;;
10299;SDS011;5195;48.562;9.192;2024-01-06T07:30:54;4.90;;;2.67;;
10299;SDS011;5195;48.562;9.192;2024-01-06T07:33:31;4.68;;;2.80;;
10299;SDS011;5195;48.562;9.192;2024-01-06T07:36:06;3.67;;;2.00;;
10299;SDS011;5195;48.562;9.192;2024-01-06T07:38:42;2.47;;;2.30;;
10299;SDS011;5195;48.562;9.192;2024-01-06T07:41:18;2.85;;;2.40;;
10299;SDS011;5195;48.562;9.192;2024-01-06T07:43:53;6.50;;;3.13;;
10299;SDS011;5195;48.562;9.192;2024-01-06T07:46:30;3.47;;;2.30;;
10299;SDS011;5195;48.562;9.192;2024-01-06T07:49:05;3.40;;;2.30;;
10299;SDS011;5195;48.562;9.192;2024-01-06T07:51:41;2.60;;;2.30;;
10299;SDS011;5195;48.562;9.192;2024-01-06T07:54:16;3.17;;;2.27;;
10299;SDS011;5195;48.562;9.192;2024-01-06T07:56:52;4.00;;;2.70;;
10299;SDS011;5195;48.562;9.192;2024-01-06T07:59:27;4.23;;;2.93;;
10299;SDS011;5195;48.562;9.192;2024-01-06T08:02:04;3.63;;;2.30;;
10299;SDS011;5195;48.562;9.192;2024-01-06T08:04:39;2.43;;;2.30;;
10299;SDS011;5195;48.562;9.192;2024-01-06T08:07:16;3.37;;;2.63;;
10299;SDS011;5195;48.562;9.192;2024-01-06T08:09:51;3.90;;;2.85;;
10299;SDS011;5195;48.562;9.192;2024-01-06T08:12:27;3.97;;;2.50;;
10299;SDS011;5195;48.562;9.192;2024-01-06T08:15:03;3.00;;;2.20;;
10299;SDS011;5195;48.562;9.192;2024-01-06T08:17:38;2.80;;;2.00;;
10299;SDS011;5195;48.562;9.192;2024-01-06T08:20:14;2.23;;;1.83;;
10299;SDS011;5195;48.562;9.192;2024-01-06T08:22:50;2.92;;;2.20;;
10299;SDS011;5195;48.562;9.192;2024-01-06T08:25:26;2.27;;;2.10;;
10299;SDS011;5195;48.562;9.192;2024-01-06T08:28:02;2.72;;;2.10;;
10299;SDS011;5195;48.562;9.192;2024-01-06T08:30:37;3.50;;;2.77;;
10299;SDS011;5195;48.562;9.192;2024-01-06T08:33:13;3.83;;;2.77;;
10299;SDS011;5195;48.562;9.192;2024-01-06T08:35:49;2.97;;;2.77;;
10299;SDS011;5195;48.562;9.192;2024-01-06T08:38:25;4.63;;;3.07;;
10299;SDS011;5195;48.562;9.192;2024-01-06T08:41:01;3.30;;;3.00;;
10299;SDS011;5195;48.562;9.192;2024-01-06T08:43:37;4.45;;;2.90;;
10299;SDS011;5195;48.562;9.192;2024-01-06T08:46:13;3.77;;;3.40;;
10299;SDS011;5195;48.562;9.192;2024-01-06T08:48:49;4.35;;;2.97;;
10299;SDS011;5195;48.562;9.192;2024-01-06T08:51:25;1.90;;;1.80;;
10299;SDS011;5195;48.562;9.192;2024-01-06T08:54:01;2.47;;;2.20;;
10299;SDS011;5195;48.562;9.192;2024-01-06T08:56:39;2.10;;;1.90;;
10299;SDS011;5195;48.562;9.192;2024-01-06T08:59:14;2.20;;;2.00;;
10299;SDS011;5195;48.562;9.192;2024-01-06T09:01:51;3.90;;;2.50;;
10299;SDS011;5195;48.562;9.192;2024-01-06T09:04:27;4.00;;;2.57;;
10299;SDS011;5195;48.562;9.192;2024-01-06T09:07:02;3.28;;;2.95;;
10299;SDS011;5195;48.562;9.192;2024-01-06T09:09:38;2.60;;;2.40;;
10299;SDS011;5195;48.562;9.192;2024-01-06T09:12:14;4.15;;;2.47;;
10299;SDS011;5195;48.562;9.192;2024-01-06T09:14:49;2.70;;;2.50;;
10299;SDS011;5195;48.562;9.192;2024-01-06T09:17:27;2.67;;;2.47;;
10299;SDS011;5195;48.562;9.192;2024-01-06T09:20:02;2.50;;;2.30;;
10299;SDS011;5195;48.562;9.192;2024-01-06T09:22:38;9.20;;;8.27;;
10299;SDS011;5195;48.562;9.192;2024-01-06T09:25:14;6.73;;;6.13;;
10299;SDS011;5195;48.562;9.192;2024-01-06T09:27:49;4.33;;;4.03;;
10299;SDS011;5195;48.562;9.192;2024-01-06T09:30:28;4.57;;;3.77;;
10299;SDS011;5195;48.562;9.192;2024-01-06T09:33:04;3.53;;;3.23;;
10299;SDS011;5195;48.562;9.192;2024-01-06T09:35:40;4.07;;;3.67;;
10299;SDS011;5195;48.562;9.192;2024-01-06T09:38:16;4.63;;;4.23;;
10299;SDS011;5195;48.562;9.192;2024-01-06T09:40:52;5.67;;;3.80;;
10299;SDS011;5195;48.562;9.192;2024-01-06T09:43:27;4.27;;;3.93;;
10299;SDS011;5195;48.562;9.192;2024-01-06T09:46:28;4.30;;;3.90;;
10299;SDS011;5195;48.562;9.192;2024-01-06T09:48:46;5.50;;;5.00;;
10299;SDS011;5195;48.562;9.192;2024-01-06T09:51:24;4.40;;;4.00;;
10299;SDS011;5195;48.562;9.192;2024-01-06T09:54:01;5.33;;;3.60;;
10299;SDS011;5195;48.562;9.192;2024-01-06T09:56:36;4.77;;;3.87;;
10299;SDS011;5195;48.562;9.192;2024-01-06T09:59:12;6.73;;;6.13;;
10299;SDS011;5195;48.562;9.192;2024-01-06T10:01:48;5.20;;;4.70;;
10299;SDS011;5195;48.562;9.192;2024-01-06T10:04:23;3.60;;;3.30;;
10299;SDS011;5195;48.562;9.192;2024-01-06T10:06:59;5.70;;;5.20;;
10299;SDS011;5195;48.562;9.192;2024-01-06T10:09:34;4.37;;;4.07;;
10299;SDS011;5195;48.562;9.192;2024-01-06T10:12:10;4.40;;;4.00;;
10299;SDS011;5195;48.562;9.192;2024-01-06T10:14:46;4.70;;;3.70;;
10299;SDS011;5195;48.562;9.192;2024-01-06T10:17:22;3.23;;;2.90;;
10299;SDS011;5195;48.562;9.192;2024-01-06T10:19:59;3.30;;;3.00;;
10299;SDS011;5195;48.562;9.192;2024-01-06T10:22:34;2.77;;;2.57;;
10299;SDS011;5195;48.562;9.192;2024-01-06T10:25:10;2.60;;;2.40;;
10299;SDS011;5195;48.562;9.192;2024-01-06T10:27:45;3.27;;;3.00;;
10299;SDS011;5195;48.562;9.192;2024-01-06T10:30:21;3.10;;;2.90;;
10299;SDS011;5195;48.562;9.192;2024-01-06T10:32:57;3.00;;;2.80;;
10299;SDS011;5195;48.562;9.192;2024-01-06T10:35:36;3.03;;;2.53;;
10299;SDS011;5195;48.562;9.192;2024-01-06T10:38:18;2.70;;;2.50;;
10299;SDS011;5195;48.562;9.192;2024-01-06T10:41:04;2.10;;;2.00;;
10299;SDS011;5195;48.562;9.192;2024-01-06T10:43:40;2.80;;;2.60;;
10299;SDS011;5195;48.562;9.192;2024-01-06T10:46:16;2.50;;;2.37;;
10299;SDS011;5195;48.562;9.192;2024-01-06T10:48:51;2.92;;;2.72;;
10299;SDS011;5195;48.562;9.192;2024-01-06T10:51:27;2.83;;;2.37;;
10299;SDS011;5195;48.562;9.192;2024-01-06T10:54:04;2.20;;;2.10;;
10299;SDS011;5195;48.562;9.192;2024-01-06T10:56:39;1.90;;;1.80;;
10299;SDS011;5195;48.562;9.192;2024-01-06T10:59:15;1.70;;;1.60;;
10299;SDS011;5195;48.562;9.192;2024-01-06T11:01:50;1.73;;;1.63;;
10299;SDS011;5195;48.562;9.192;2024-01-06T11:04:26;1.70;;;1.10;;
10299;SDS011;5195;48.562;9.192;2024-01-06T11:07:01;1.40;;;1.10;;
10299;SDS011;5195;48.562;9.192;2024-01-06T11:09:37;1.23;;;1.23;;
10299;SDS011;5195;48.562;9.192;2024-01-06T11:12:13;2.23;;;1.30;;
10299;SDS011;5195;48.562;9.192;2024-01-06T11:14:50;1.00;;;1.00;;
10299;SDS011;5195;48.562;9.192;2024-01-06T11:20:31;0.90;;;0.90;;
10299;SDS011;5195;48.562;9.192;2024-01-06T11:23:19;0.80;;;0.80;;
10299;SDS011;5195;48.562;9.192;2024-01-06T11:25:54;1.23;;;1.13;;
10299;SDS011;5195;48.562;9.192;2024-01-06T11:28:30;1.37;;;1.23;;
10299;SDS011;5195;48.562;9.192;2024-01-06T11:31:10;0.90;;;0.90;;
10299;SDS011;5195;48.562;9.192;2024-01-06T11:33:45;1.20;;;1.10;;
10299;SDS011;5195;48.562;9.192;2024-01-06T11:36:21;1.00;;;1.00;;
10299;SDS011;5195;48.562;9.192;2024-01-06T11:38:57;1.00;;;1.00;;
10299;SDS011;5195;48.562;9.192;2024-01-06T11:41:48;1.40;;;1.30;;
10299;SDS011;5195;48.562;9.192;2024-01-06T11:44:24;1.45;;;1.35;;
10299;SDS011;5195;48.562;9.192;2024-01-06T11:46:59;1.27;;;1.17;;
10299;SDS011;5195;48.562;9.192;2024-01-06T11:49:35;0.90;;;0.90;;
10299;SDS011;5195;48.562;9.192;2024-01-06T11:52:11;1.37;;;1.10;;
10299;SDS011;5195;48.562;9.192;2024-01-06T11:54:47;1.10;;;1.07;;
10299;SDS011;5195;48.562;9.192;2024-01-06T11:57:22;1.00;;;1.00;;
10299;SDS011;5195;48.562;9.192;2024-01-06T11:59:58;1.03;;;1.03;;
10299;SDS011;5195;48.562;9.192;2024-01-06T12:02:33;0.98;;;0.98;;
10299;SDS011;5195;48.562;9.192;2024-01-06T12:05:14;1.20;;;1.10;;
10299;SDS011;5195;48.562;9.192;2024-01-06T12:07:57;0.90;;;0.90;;
10299;SDS011;5195;48.562;9.192;2024-01-06T12:10:32;1.27;;;1.20;;
10299;SDS011;5195;48.562;9.192;2024-01-06T12:13:08;1.60;;;1.50;;
10299;SDS011;5195;48.562;9.192;2024-01-06T12:15:43;1.20;;;1.20;;
10299;SDS011;5195;48.562;9.192;2024-01-06T12:18:19;1.40;;;1.30;;
10299;SDS011;5195;48.562;9.192;2024-01-06T12:20:54;1.13;;;0.83;;
10299;SDS011;5195;48.562;9.192;2024-01-06T12:23:30;1.47;;;1.47;;
10299;SDS011;5195;48.562;9.192;2024-01-06T12:26:06;1.07;;;1.07;;
10299;SDS011;5195;48.562;9.192;2024-01-06T12:28:44;1.10;;;1.10;;
10299;SDS011;5195;48.562;9.192;2024-01-06T12:31:17;1.00;;;1.00;;
10299;SDS011;5195;48.562;9.192;2024-01-06T12:33:52;1.40;;;1.10;;
10299;SDS011;5195;48.562;9.192;2024-01-06T12:36:28;1.10;;;1.10;;
10299;SDS011;5195;48.562;9.192;2024-01-06T12:39:04;0.80;;;0.80;;
10299;SDS011;5195;48.562;9.192;2024-01-06T12:41:40;1.30;;;1.17;;
10299;SDS011;5195;48.562;9.192;2024-01-06T12:44:18;1.20;;;1.20;;
10299;SDS011;5195;48.562;9.192;2024-01-06T12:46:54;1.08;;;1.08;;
10299;SDS011;5195;48.562;9.192;2024-01-06T12:49:31;1.27;;;1.20;;
10299;SDS011;5195;48.562;9.192;2024-01-06T12:52:07;1.77;;;0.97;;
10299;SDS011;5195;48.562;9.192;2024-01-06T12:54:42;4.43;;;1.80;;
10299;SDS011;5195;48.562;9.192;2024-01-06T12:57:18;1.60;;;1.40;;
10299;SDS011;5195;48.562;9.192;2024-01-06T12:59:53;1.25;;;1.12;;
10299;SDS011;5195;48.562;9.192;2024-01-06T13:02:30;1.20;;;1.10;;
10299;SDS011;5195;48.562;9.192;2024-01-06T13:05:06;1.12;;;1.02;;
10299;SDS011;5195;48.562;9.192;2024-01-06T13:07:42;4.30;;;4.10;;
10299;SDS011;5195;48.562;9.192;2024-01-06T13:10:19;2.13;;;2.03;;
10299;SDS011;5195;48.562;9.192;2024-01-06T13:12:56;2.20;;;2.03;;
10299;SDS011;5195;48.562;9.192;2024-01-06T13:15:33;2.10;;;2.00;;
10299;SDS011;5195;48.562;9.192;2024-01-06T13:18:08;2.20;;;2.10;;
10299;SDS011;5195;48.562;9.192;2024-01-06T13:20:44;1.80;;;1.70;;
10299;SDS011;5195;48.562;9.192;2024-01-06T13:23:20;2.95;;;2.75;;
10299;SDS011;5195;48.562;9.192;2024-01-06T13:25:55;3.20;;;3.00;;
10299;SDS011;5195;48.562;9.192;2024-01-06T13:28:31;1.20;;;1.20;;
10299;SDS011;5195;48.562;9.192;2024-01-06T13:31:06;1.40;;;1.40;;
10299;SDS011;5195;48.562;9.192;2024-01-06T13:33:43;1.70;;;1.60;;
10299;SDS011;5195;48.562;9.192;2024-01-06T13:36:20;1.77;;;1.73;;
10299;SDS011;5195;48.562;9.192;2024-01-06T13:38:57;1.50;;;1.40;;
10299;SDS011;5195;48.562;9.192;2024-01-06T13:41:33;1.37;;;1.27;;
10299;SDS011;5195;48.562;9.192;2024-01-06T13:44:10;1.40;;;1.30;;
10299;SDS011;5195;48.562;9.192;2024-01-06T13:46:45;1.57;;;1.47;;
10299;SDS011;5195;48.562;9.192;2024-01-06T13:49:21;1.13;;;1.10;;
10299;SDS011;5195;48.562;9.192;2024-01-06T13:51:56;1.40;;;1.30;;
10299;SDS011;5195;48.562;9.192;2024-01-06T13:54:32;1.57;;;1.47;;
10299;SDS011;5195;48.562;9.192;2024-01-06T13:57:08;2.10;;;2.00;;
10299;SDS011;5195;48.562;9.192;2024-01-06T13:59:43;2.40;;;2.20;;
10299;SDS011;5195;48.562;9.192;2024-01-06T14:02:20;2.87;;;2.67;;
10299;SDS011;5195;48.562;9.192;2024-01-06T14:04:55;2.87;;;2.73;;
10299;SDS011;5195;48.562;9.192;2024-01-06T14:07:31;3.60;;;3.40;;
10299;SDS011;5195;48.562;9.192;2024-01-06T14:10:08;4.97;;;4.70;;
10299;SDS011;5195;48.562;9.192;2024-01-06T14:12:43;2.90;;;2.80;;
10299;SDS011;5195;48.562;9.192;2024-01-06T14:15:19;3.10;;;2.90;;
10299;SDS011;5195;48.562;9.192;2024-01-06T14:17:56;2.70;;;2.50;;
10299;SDS011;5195;48.562;9.192;2024-01-06T14:20:31;2.83;;;2.63;;
10299;SDS011;5195;48.562;9.192;2024-01-06T14:23:07;2.20;;;2.10;;
10299;SDS011;5195;48.562;9.192;2024-01-06T14:25:42;2.83;;;2.37;;
10299;SDS011;5195;48.562;9.192;2024-01-06T14:28:20;2.10;;;2.00;;
10299;SDS011;5195;48.562;9.192;2024-01-06T14:30:56;2.45;;;2.35;;
10299;SDS011;5195;48.562;9.192;2024-01-06T14:33:31;2.80;;;2.70;;
10299;SDS011;5195;48.562;9.192;2024-01-06T14:36:07;2.50;;;2.40;;
10299;SDS011;5195;48.562;9.192;2024-01-06T14:38:44;2.90;;;2.70;;
10299;SDS011;5195;48.562;9.192;2024-01-06T14:41:19;2.40;;;2.30;;
10299;SDS011;5195;48.562;9.192;2024-01-06T14:43:55;2.93;;;2.80;;
10299;SDS011;5195;48.562;9.192;2024-01-06T14:46:30;2.80;;;2.60;;
10299;SDS011;5195;48.562;9.192;2024-01-06T14:49:06;3.37;;;3.17;;
10299;SDS011;5195;48.562;9.192;2024-01-06T14:51:41;2.20;;;2.10;;
10299;SDS011;5195;48.562;9.192;2024-01-06T14:54:17;2.40;;;2.30;;
10299;SDS011;5195;48.562;9.192;2024-01-06T14:56:57;3.73;;;3.53;;
10299;SDS011;5195;48.562;9.192;2024-01-06T14:59:32;2.57;;;2.47;;
10299;SDS011;5195;48.562;9.192;2024-01-06T15:02:07;2.83;;;2.60;;
10299;SDS011;5195;48.562;9.192;2024-01-06T15:04:43;2.62;;;2.53;;
10299;SDS011;5195;48.562;9.192;2024-01-06T15:07:16;2.50;;;2.40;;
10299;SDS011;5195;48.562;9.192;2024-01-06T15:09:43;3.07;;;2.97;;
10299;SDS011;5195;48.562;9.192;2024-01-06T15:12:08;3.03;;;2.80;;
10299;SDS011;5195;48.562;9.192;2024-01-06T15:14:34;3.97;;;3.77;;
10299;SDS011;5195;48.562;9.192;2024-01-06T15:17:01;3.80;;;3.60;;
10299;SDS011;5195;48.562;9.192;2024-01-06T15:19:28;3.70;;;3.50;;
10299;SDS011;5195;48.562;9.192;2024-01-06T15:21:54;3.20;;;3.00;;
10299;SDS011;5195;48.562;9.192;2024-01-06T15:24:19;9.50;;;8.90;;
10299;SDS011;5195;48.562;9.192;2024-01-06T15:26:45;5.23;;;4.93;;
10299;SDS011;5195;48.562;9.192;2024-01-06T15:29:11;4.80;;;4.50;;
10299;SDS011;5195;48.562;9.192;2024-01-06T15:31:36;9.90;;;9.20;;
10299;SDS011;5195;48.562;9.192;2024-01-06T15:34:03;8.93;;;8.30;;
10299;SDS011;5195;48.562;9.192;2024-01-06T15:36:29;5.70;;;5.40;;
10299;SDS011;5195;48.562;9.192;2024-01-06T15:38:55;4.50;;;4.30;;
10299;SDS011;5195;48.562;9.192;2024-01-06T15:41:20;6.23;;;5.93;;
10299;SDS011;5195;48.562;9.192;2024-01-06T15:43:46;6.20;;;5.80;;
10299;SDS011;5195;48.562;9.192;2024-01-06T15:46:11;5.45;;;5.15;;
10299;SDS011;5195;48.562;9.192;2024-01-06T15:48:37;5.22;;;4.93;;
10299;SDS011;5195;48.562;9.192;2024-01-06T15:51:04;3.53;;;3.33;;
10299;SDS011;5195;48.562;9.192;2024-01-06T15:53:29;5.07;;;4.77;;